Time;durP1;ratioP1;P1;durP2;ratioP2;P2;SDS_P1;SDS_P2;PMS_P1;PMS_P2;Temp;Humidity;BMP_temperature;BMP_pressure;BME280_temperature;BME280_humidity;BME280_pressure;Samples;Min_cycle;Max_cycle;Signal;HPM_P1;HPM_P2
2024/01/26 00:02:13;;;;;;;5.23;3.43;;;11.40;99.90;;;;;;5072270;28;20195;-73
2024/01/26 00:04:38;;;;;;;3.83;3.17;;;11.40;99.90;;;;;;5072883;28;20522;-73
2024/01/26 00:07:05;;;;;;;8.70;3.30;;;11.40;99.90;;;;;;5090834;28;20164;-73
2024/01/26 00:09:32;;;;;;;3.70;2.60;;;11.40;99.90;;;;;;5069131;28;20231;-76
2024/01/26 00:11:57;;;;;;;4.18;2.25;;;11.40;99.90;;;;;;5055760;28;20207;-76
2024/01/26 00:14:23;;;;;;;5.60;2.63;;;11.40;99.90;;;;;;5090855;28;20734;-76
2024/01/26 00:16:49;;;;;;;3.83;3.23;;;11.40;99.90;;;;;;5090491;28;20180;-76
2024/01/26 00:19:14;;;;;;;5.43;2.97;;;11.40;99.90;;;;;;5072258;28;20298;-76
2024/01/26 00:21:40;;;;;;;3.90;3.27;;;11.40;99.90;;;;;;5069598;28;20863;-76
2024/01/26 00:24:06;;;;;;;4.50;2.50;;;11.30;99.90;;;;;;5083153;28;20175;-76
2024/01/26 00:26:31;;;;;;;6.23;2.80;;;11.30;99.90;;;;;;5071494;28;20180;-76
2024/01/26 00:28:57;;;;;;;5.73;3.13;;;11.30;99.90;;;;;;5072175;28;20179;-76
2024/01/26 00:31:23;;;;;;;5.00;2.77;;;11.30;99.90;;;;;;5072159;28;20195;-76
2024/01/26 00:33:48;;;;;;;3.37;2.30;;;11.30;99.90;;;;;;5090598;28;20210;-77
2024/01/26 00:36:14;;;;;;;3.03;2.47;;;11.40;99.90;;;;;;5072383;28;20180;-76
2024/01/26 00:38:41;;;;;;;4.70;2.77;;;11.40;99.90;;;;;;5085368;28;20680;-76
2024/01/26 00:41:07;;;;;;;3.65;2.00;;;11.40;99.90;;;;;;5072200;28;20249;-77
2024/01/26 00:43:32;;;;;;;5.13;2.47;;;11.50;99.90;;;;;;5072471;28;20711;-77
2024/01/26 00:45:58;;;;;;;5.80;3.33;;;11.50;99.90;;;;;;5082013;28;20588;-77
2024/01/26 00:48:24;;;;;;;4.50;2.90;;;11.50;99.90;;;;;;5066855;28;20176;-77
2024/01/26 00:50:50;;;;;;;3.87;2.27;;;11.50;99.90;;;;;;5069423;28;20183;-77
2024/01/26 00:53:17;;;;;;;3.90;2.75;;;11.50;99.90;;;;;;5055775;28;20712;-76
2024/01/26 00:55:43;;;;;;;5.28;2.67;;;11.50;99.90;;;;;;5072627;28;20175;-77
2024/01/26 00:58:09;;;;;;;3.00;2.65;;;11.60;99.90;;;;;;5074698;28;20262;-77
2024/01/26 01:00:35;;;;;;;3.22;2.42;;;11.50;99.90;;;;;;5093146;28;20287;-75
2024/01/26 01:03:00;;;;;;;2.83;2.07;;;11.60;99.90;;;;;;5098711;28;20688;-76
2024/01/26 01:05:26;;;;;;;4.47;2.13;;;11.60;99.90;;;;;;5076309;28;20270;-76
2024/01/26 01:07:52;;;;;;;3.33;2.63;;;11.60;99.90;;;;;;5059347;28;20174;-75
2024/01/26 01:10:18;;;;;;;3.10;2.77;;;11.60;99.90;;;;;;5075621;28;20221;-76
2024/01/26 01:12:44;;;;;;;3.80;2.43;;;11.60;99.90;;;;;;5075808;28;20241;-75
2024/01/26 01:15:12;;;;;;;3.65;2.65;;;11.70;99.90;;;;;;5067511;28;20645;-76
2024/01/26 01:17:42;;;;;;;4.13;2.43;;;11.70;99.90;;;;;;5076012;28;20205;-75
2024/01/26 01:20:10;;;;;;;3.50;2.90;;;11.80;99.90;;;;;;5058811;28;20203;-76
2024/01/26 01:22:39;;;;;;;3.00;2.40;;;11.80;99.90;;;;;;5093880;28;20298;-75
2024/01/26 01:25:06;;;;;;;3.92;3.05;;;11.90;99.90;;;;;;5074543;28;20177;-76
2024/01/26 01:27:32;;;;;;;3.33;2.78;;;11.90;99.90;;;;;;5093966;28;20655;-76
2024/01/26 01:29:59;;;;;;;3.40;3.05;;;11.90;99.90;;;;;;5074932;28;20214;-76
2024/01/26 01:32:25;;;;;;;4.28;3.38;;;11.90;99.90;;;;;;5077133;28;20187;-76
2024/01/26 01:34:52;;;;;;;5.80;2.43;;;12.00;99.90;;;;;;5094734;28;20190;-76
2024/01/26 01:37:18;;;;;;;4.13;3.28;;;12.00;99.90;;;;;;5075644;28;20660;-76
2024/01/26 01:39:43;;;;;;;3.47;2.97;;;12.00;99.90;;;;;;5081241;28;20574;-76
2024/01/26 01:42:14;;;;;;;4.43;3.20;;;12.00;99.90;;;;;;5075647;28;20191;-76
2024/01/26 01:44:43;;;;;;;4.82;3.45;;;12.10;99.90;;;;;;5075363;28;20313;-76
2024/01/26 01:47:10;;;;;;;3.65;3.30;;;12.10;99.90;;;;;;5074998;28;20592;-76
2024/01/26 01:49:38;;;;;;;3.90;3.10;;;12.10;99.90;;;;;;5066278;28;20179;-76
2024/01/26 01:52:07;;;;;;;3.42;2.83;;;12.10;99.90;;;;;;5073906;28;20732;-77
2024/01/26 01:54:33;;;;;;;3.55;3.25;;;12.20;99.90;;;;;;5093476;28;20241;-77
2024/01/26 01:57:05;;;;;;;4.93;3.35;;;12.20;99.90;;;;;;5058309;28;20240;-77
2024/01/26 01:59:33;;;;;;;3.20;2.90;;;12.20;99.90;;;;;;5092516;28;20210;-77
2024/01/26 02:01:59;;;;;;;3.35;3.03;;;12.20;99.90;;;;;;5072780;28;20247;-77
2024/01/26 02:04:26;;;;;;;3.25;2.95;;;12.20;99.90;;;;;;5093189;28;20175;-77
2024/01/26 02:07:02;;;;;;;5.40;3.72;;;12.20;99.90;;;;;;5055045;28;20172;-77
2024/01/26 02:09:29;;;;;;;4.20;3.17;;;12.20;99.90;;;;;;5070733;28;20184;-77
2024/01/26 02:11:55;;;;;;;4.40;3.63;;;12.30;99.90;;;;;;5074691;28;20222;-77
2024/01/26 02:14:21;;;;;;;3.13;2.83;;;12.30;99.90;;;;;;5058089;28;20171;-77
2024/01/26 02:16:57;;;;;;;4.35;3.25;;;12.30;99.90;;;;;;5079462;28;20168;-77
2024/01/26 02:19:24;;;;;;;5.18;4.32;;;12.30;99.90;;;;;;5074145;28;20206;-77
2024/01/26 02:21:50;;;;;;;4.22;3.53;;;12.30;99.90;;;;;;5058196;28;20191;-77
2024/01/26 02:24:16;;;;;;;3.43;2.70;;;12.30;99.90;;;;;;5057874;28;20698;-77
2024/01/26 02:26:42;;;;;;;5.37;3.03;;;12.30;99.90;;;;;;5074610;28;20763;-77
2024/01/26 02:29:08;;;;;;;3.27;2.87;;;12.30;99.90;;;;;;5073965;28;20578;-77
2024/01/26 02:31:34;;;;;;;5.20;3.50;;;12.30;99.90;;;;;;5092763;28;20200;-77
2024/01/26 02:33:59;;;;;;;3.83;3.40;;;12.40;99.90;;;;;;5092470;28;20180;-77
2024/01/26 02:36:27;;;;;;;3.47;3.13;;;12.40;99.90;;;;;;5070999;28;20594;-77
2024/01/26 02:38:54;;;;;;;3.80;2.53;;;12.40;99.90;;;;;;5057130;28;20186;-77
2024/01/26 02:41:19;;;;;;;3.70;3.10;;;12.40;99.90;;;;;;5074404;28;20597;-77
2024/01/26 02:43:45;;;;;;;3.90;3.30;;;12.40;99.90;;;;;;5057382;28;20577;-77
2024/01/26 02:46:11;;;;;;;3.30;2.80;;;12.40;99.90;;;;;;5092246;28;20175;-77
2024/01/26 02:48:38;;;;;;;4.47;2.77;;;12.40;99.90;;;;;;5073535;28;20510;-76
2024/01/26 02:51:04;;;;;;;3.93;3.10;;;12.40;99.90;;;;;;5074380;28;20685;-77
2024/01/26 02:53:30;;;;;;;4.55;3.10;;;12.40;99.90;;;;;;5078492;28;20655;-76
2024/01/26 02:55:56;;;;;;;3.47;2.80;;;12.50;99.90;;;;;;5073847;28;20179;-76
2024/01/26 02:58:22;;;;;;;3.40;3.03;;;12.50;99.90;;;;;;5091535;28;20600;-76
2024/01/26 03:00:48;;;;;;;3.53;2.80;;;12.50;99.90;;;;;;5091717;28;20211;-77
2024/01/26 03:03:14;;;;;;;4.60;2.90;;;12.50;99.90;;;;;;5073221;28;20305;-76
2024/01/26 03:05:40;;;;;;;4.63;2.97;;;12.50;99.90;;;;;;5092144;28;20286;-76
2024/01/26 03:08:07;;;;;;;3.73;2.80;;;12.50;99.90;;;;;;5071405;28;20184;-76
2024/01/26 03:10:33;;;;;;;4.57;2.60;;;12.60;99.90;;;;;;5091718;28;20582;-76
2024/01/26 03:12:58;;;;;;;4.60;3.20;;;12.60;99.90;;;;;;5053909;28;20696;-76
2024/01/26 03:15:24;;;;;;;3.50;2.97;;;12.60;99.90;;;;;;5065323;28;21201;-77
2024/01/26 03:17:50;;;;;;;3.70;2.80;;;12.60;99.90;;;;;;5091963;28;20665;-76
2024/01/26 03:20:17;;;;;;;3.67;2.80;;;12.60;99.90;;;;;;5090379;28;20633;-77
2024/01/26 03:22:43;;;;;;;7.00;3.38;;;12.60;99.90;;;;;;5091770;28;20605;-77
2024/01/26 03:25:09;;;;;;;3.47;2.83;;;12.60;99.90;;;;;;5091259;28;20171;-76
2024/01/26 03:27:35;;;;;;;4.83;3.17;;;12.60;99.90;;;;;;5065108;28;20582;-77
2024/01/26 03:30:02;;;;;;;3.80;2.23;;;12.70;99.90;;;;;;5075747;28;20586;-77
2024/01/26 03:32:28;;;;;;;3.50;3.10;;;12.70;99.90;;;;;;5074600;28;20282;-77
2024/01/26 03:34:53;;;;;;;4.10;2.90;;;12.70;99.90;;;;;;5064649;28;20250;-77
2024/01/26 03:37:19;;;;;;;3.07;2.30;;;12.70;99.90;;;;;;5072492;28;20914;-77
2024/01/26 03:39:45;;;;;;;3.50;2.27;;;12.70;99.90;;;;;;5090698;28;20200;-76
2024/01/26 03:42:11;;;;;;;2.90;2.60;;;12.70;99.90;;;;;;5083002;28;20231;-76
2024/01/26 03:44:38;;;;;;;4.23;2.80;;;12.80;99.90;;;;;;5087079;28;20195;-76
2024/01/26 03:47:04;;;;;;;2.30;2.03;;;12.80;99.90;;;;;;5091155;28;20585;-76
2024/01/26 03:49:30;;;;;;;3.50;2.80;;;12.80;99.90;;;;;;5069839;28;20595;-75
2024/01/26 03:51:56;;;;;;;5.13;2.63;;;12.80;99.90;;;;;;5090705;28;20625;-76
2024/01/26 03:54:21;;;;;;;3.10;2.47;;;12.80;99.90;;;;;;5090589;28;20183;-76
2024/01/26 03:56:47;;;;;;;2.30;1.90;;;12.80;99.90;;;;;;5091057;28;20190;-76
2024/01/26 03:59:13;;;;;;;4.90;3.20;;;12.80;99.90;;;;;;5090449;28;20632;-76
2024/01/26 04:01:39;;;;;;;2.50;2.00;;;12.80;99.90;;;;;;5069330;28;20213;-77
2024/01/26 04:04:06;;;;;;;2.83;2.33;;;12.80;99.90;;;;;;5072452;28;20585;-77
2024/01/26 04:06:31;;;;;;;2.30;2.10;;;12.80;99.90;;;;;;5091026;28;20176;-77
2024/01/26 04:08:59;;;;;;;3.07;2.23;;;12.80;99.90;;;;;;5094021;28;21131;-77
2024/01/26 04:11:25;;;;;;;2.60;1.90;;;12.80;99.90;;;;;;5082560;28;21201;-77
2024/01/26 04:13:50;;;;;;;3.70;1.63;;;12.80;99.90;;;;;;5090680;28;20574;-77
2024/01/26 04:16:16;;;;;;;3.03;1.93;;;12.80;99.90;;;;;;5090368;28;20660;-77
2024/01/26 04:18:43;;;;;;;2.10;1.47;;;12.90;99.90;;;;;;5068618;28;20184;-77
2024/01/26 04:21:10;;;;;;;3.00;1.70;;;12.90;99.90;;;;;;5090379;28;20588;-77
2024/01/26 04:23:35;;;;;;;2.23;1.87;;;12.90;99.90;;;;;;5090612;28;20167;-77
2024/01/26 04:26:01;;;;;;;2.17;1.43;;;12.80;99.90;;;;;;5072118;28;20580;-77
2024/01/26 04:28:27;;;;;;;2.40;1.47;;;12.80;99.90;;;;;;5055274;28;20170;-77
2024/01/26 04:30:53;;;;;;;1.90;1.33;;;12.90;99.90;;;;;;5090396;28;20172;-77
2024/01/26 04:33:19;;;;;;;2.33;1.53;;;12.90;99.90;;;;;;5054969;28;20199;-77
2024/01/26 04:35:44;;;;;;;2.03;1.57;;;12.80;99.90;;;;;;5090117;28;20597;-77
2024/01/26 04:38:10;;;;;;;3.17;1.70;;;12.80;99.90;;;;;;5071683;28;20258;-77
2024/01/26 04:40:38;;;;;;;2.47;1.50;;;12.80;99.90;;;;;;5090402;28;20241;-77
2024/01/26 04:43:05;;;;;;;5.05;1.77;;;12.80;99.90;;;;;;5090386;28;21181;-77
2024/01/26 04:45:31;;;;;;;2.37;1.30;;;12.80;99.90;;;;;;5079857;28;20172;-77
2024/01/26 04:47:56;;;;;;;2.23;1.23;;;12.70;99.90;;;;;;5090658;28;20604;-77
2024/01/26 04:50:22;;;;;;;1.40;0.87;;;12.70;99.90;;;;;;5090011;28;20582;-77
2024/01/26 04:52:49;;;;;;;2.40;0.80;;;12.60;99.90;;;;;;5090414;28;20230;-77
2024/01/26 04:55:15;;;;;;;1.60;1.00;;;12.70;99.90;;;;;;5090163;28;20816;-77
2024/01/26 04:57:42;;;;;;;3.77;1.10;;;12.60;99.90;;;;;;5055344;28;20214;-77
2024/01/26 05:00:08;;;;;;;2.17;1.00;;;12.60;99.90;;;;;;5089784;28;20651;-77
2024/01/26 05:02:34;;;;;;;2.00;1.00;;;12.70;99.90;;;;;;5068814;28;20622;-77
2024/01/26 05:05:00;;;;;;;1.60;1.00;;;12.70;99.90;;;;;;5090409;28;20680;-77
2024/01/26 05:07:26;;;;;;;1.50;0.87;;;12.70;99.90;;;;;;5090088;28;20172;-77
2024/01/26 05:09:52;;;;;;;1.50;0.80;;;12.70;99.90;;;;;;5089833;28;21142;-77
2024/01/26 05:12:17;;;;;;;1.47;0.80;;;12.70;99.90;;;;;;5089915;28;20944;-77
2024/01/26 05:14:44;;;;;;;1.70;0.80;;;12.70;99.90;;;;;;5081815;28;20260;-77
2024/01/26 05:17:10;;;;;;;1.50;0.80;;;12.70;99.90;;;;;;5089278;28;20187;-77
2024/01/26 05:19:35;;;;;;;3.17;1.00;;;12.70;99.90;;;;;;5089605;28;20305;-78
2024/01/26 05:22:01;;;;;;;1.73;0.90;;;12.80;99.90;;;;;;5075398;28;20278;-77
2024/01/26 05:24:27;;;;;;;1.50;0.80;;;12.80;99.90;;;;;;5055676;28;20168;-78
2024/01/26 05:26:55;;;;;;;1.67;1.00;;;12.70;99.90;;;;;;5071535;28;20592;-76
2024/01/26 05:29:21;;;;;;;1.43;0.87;;;12.70;99.90;;;;;;5070735;28;20176;-76
2024/01/26 05:31:46;;;;;;;1.40;0.67;;;12.70;99.90;;;;;;5071833;28;20624;-76
2024/01/26 05:34:12;;;;;;;1.13;0.50;;;12.70;99.90;;;;;;5072006;28;20582;-76
2024/01/26 05:36:42;;;;;;;1.27;0.60;;;12.60;99.90;;;;;;5089330;28;20713;-75
2024/01/26 05:39:11;;;;;;;1.40;0.50;;;12.60;99.90;;;;;;5051720;28;20195;-76
2024/01/26 05:41:36;;;;;;;1.80;0.70;;;12.60;99.90;;;;;;5089835;28;20617;-75
2024/01/26 05:44:03;;;;;;;2.47;1.00;;;12.60;99.90;;;;;;5057507;28;20604;-75
2024/01/26 05:46:28;;;;;;;1.40;0.70;;;12.60;99.90;;;;;;5050179;28;20589;-75
2024/01/26 05:48:56;;;;;;;2.47;0.70;;;12.60;99.90;;;;;;5057903;28;20582;-76
2024/01/26 05:51:22;;;;;;;4.60;0.70;;;12.50;99.90;;;;;;5093107;28;20191;-76
2024/01/26 05:53:47;;;;;;;3.87;0.70;;;12.60;99.90;;;;;;5093547;28;20658;-76
2024/01/26 05:56:13;;;;;;;1.20;0.60;;;12.50;99.90;;;;;;5093277;28;20187;-76
2024/01/26 05:58:39;;;;;;;2.00;0.90;;;12.50;99.90;;;;;;5096226;28;20180;-76
2024/01/26 06:01:04;;;;;;;1.40;0.80;;;12.60;99.90;;;;;;5085474;28;20674;-76
2024/01/26 06:03:30;;;;;;;2.90;1.33;;;12.60;99.90;;;;;;5093445;28;20203;-76
2024/01/26 06:05:56;;;;;;;1.80;0.70;;;12.60;99.90;;;;;;5093436;28;20191;-76
2024/01/26 06:08:21;;;;;;;2.57;0.80;;;12.60;99.90;;;;;;5092835;28;20554;-76
2024/01/26 06:10:47;;;;;;;1.50;0.70;;;12.60;99.90;;;;;;5071552;28;20320;-76
2024/01/26 06:13:13;;;;;;;1.67;0.73;;;12.50;99.90;;;;;;5074480;28;20213;-76
2024/01/26 06:15:39;;;;;;;2.37;0.73;;;12.50;99.90;;;;;;5071642;28;20241;-77
2024/01/26 06:18:04;;;;;;;1.40;0.80;;;12.50;99.90;;;;;;5074170;28;20194;-76
2024/01/26 06:20:31;;;;;;;1.63;0.97;;;12.50;99.90;;;;;;5074669;28;20669;-76
2024/01/26 06:22:57;;;;;;;1.87;0.70;;;12.50;99.90;;;;;;5066499;28;20199;-76
2024/01/26 06:25:24;;;;;;;2.27;1.00;;;12.40;99.90;;;;;;5092703;28;20995;-76
2024/01/26 06:27:50;;;;;;;2.23;1.20;;;12.40;99.90;;;;;;5057742;28;21134;-77
2024/01/26 06:30:16;;;;;;;2.27;1.03;;;12.40;99.90;;;;;;5074108;28;20658;-76
2024/01/26 06:32:43;;;;;;;2.17;0.80;;;12.30;99.90;;;;;;5057912;28;20665;-77
2024/01/26 06:35:09;;;;;;;3.08;1.13;;;12.30;99.90;;;;;;5092394;28;20540;-77
2024/01/26 06:37:35;;;;;;;2.17;0.90;;;12.30;99.90;;;;;;5074788;28;20259;-77
2024/01/26 06:40:00;;;;;;;1.80;1.00;;;12.30;99.90;;;;;;5087739;28;20728;-77
2024/01/26 06:42:26;;;;;;;4.05;1.02;;;12.30;99.90;;;;;;5073875;28;20196;-77
2024/01/26 06:44:53;;;;;;;1.87;1.00;;;12.30;99.90;;;;;;5071703;28;20183;-77
2024/01/26 06:47:19;;;;;;;1.47;0.90;;;12.40;99.90;;;;;;5092309;28;20179;-77
2024/01/26 06:49:45;;;;;;;2.27;0.90;;;12.40;99.90;;;;;;5073720;28;20593;-77
2024/01/26 06:52:11;;;;;;;2.63;0.97;;;12.40;99.90;;;;;;5092579;28;20618;-76
2024/01/26 06:54:40;;;;;;;2.07;1.20;;;12.40;99.90;;;;;;5074239;28;20183;-75
2024/01/26 06:57:06;;;;;;;2.13;0.90;;;12.40;99.90;;;;;;5073670;28;20590;-75
2024/01/26 06:59:32;;;;;;;3.58;1.02;;;12.50;99.90;;;;;;5091612;28;20651;-75
2024/01/26 07:02:01;;;;;;;1.63;0.90;;;12.50;99.90;;;;;;5073847;28;20282;-76
2024/01/26 07:04:26;;;;;;;2.30;1.00;;;12.50;99.90;;;;;;5073493;28;20578;-75
2024/01/26 07:06:52;;;;;;;2.27;1.00;;;12.50;99.90;;;;;;5091558;28;20692;-75
2024/01/26 07:09:18;;;;;;;2.90;1.00;;;12.60;99.90;;;;;;5091208;28;20172;-75
2024/01/26 07:12:22;;;;;;;;;;;;;;;;;;;;;
2024/01/26 07:15:13;;;;;;;1.70;1.00;;;12.60;99.90;;;;;;5089491;28;20198;-75
2024/01/26 07:17:39;;;;;;;2.33;1.00;;;12.70;99.90;;;;;;5091349;28;21114;-75
2024/01/26 07:20:06;;;;;;;1.80;0.80;;;12.70;99.90;;;;;;5091380;28;20207;-75
2024/01/26 07:22:31;;;;;;;3.03;1.30;;;12.70;99.90;;;;;;5073594;28;20221;-75
2024/01/26 07:24:57;;;;;;;3.00;0.90;;;12.60;99.90;;;;;;5073677;28;20598;-75
2024/01/26 07:27:23;;;;;;;2.07;1.00;;;12.60;99.90;;;;;;5073504;28;20202;-75
2024/01/26 07:29:48;;;;;;;3.10;1.00;;;12.50;99.90;;;;;;5091239;28;20180;-75
2024/01/26 07:32:14;;;;;;;2.53;1.10;;;12.50;99.90;;;;;;5047705;28;20211;-75
2024/01/26 07:34:40;;;;;;;2.73;1.00;;;12.50;99.90;;;;;;5056610;28;20184;-75
2024/01/26 07:37:06;;;;;;;2.40;1.03;;;12.40;99.90;;;;;;5091589;28;20685;-74
2024/01/26 07:39:32;;;;;;;3.17;1.77;;;12.30;99.90;;;;;;5072524;28;20191;-76
2024/01/26 07:41:57;;;;;;;3.00;1.17;;;12.30;99.90;;;;;;5088553;28;20199;-76
2024/01/26 07:44:23;;;;;;;1.83;1.27;;;12.20;99.90;;;;;;5050917;28;20168;-76
2024/01/26 07:46:49;;;;;;;2.00;1.00;;;12.20;99.90;;;;;;5087348;28;20574;-76
2024/01/26 07:49:15;;;;;;;2.17;1.37;;;12.20;99.90;;;;;;5072108;28;20189;-77
2024/01/26 07:51:40;;;;;;;3.30;1.83;;;12.20;99.90;;;;;;5075508;28;20192;-77
2024/01/26 07:54:07;;;;;;;3.60;1.77;;;12.20;99.90;;;;;;5089495;28;20606;-76
2024/01/26 07:56:33;;;;;;;3.43;2.33;;;12.20;99.90;;;;;;5070824;28;20663;-76
2024/01/26 07:58:59;;;;;;;4.67;2.37;;;12.30;99.90;;;;;;5055337;28;20601;-75
2024/01/26 08:01:24;;;;;;;3.40;2.27;;;12.30;99.90;;;;;;5071893;28;20203;-75
2024/01/26 08:03:50;;;;;;;5.40;2.03;;;12.30;99.90;;;;;;5090828;28;20612;-76
2024/01/26 08:06:16;;;;;;;3.00;1.90;;;12.30;99.90;;;;;;5071882;28;20170;-75
2024/01/26 08:08:42;;;;;;;5.50;3.00;;;12.30;99.90;;;;;;5089883;28;20214;-76
2024/01/26 08:11:09;;;;;;;2.73;1.47;;;12.30;99.90;;;;;;5073008;28;20187;-76
2024/01/26 08:13:34;;;;;;;4.80;1.85;;;12.30;99.90;;;;;;5090489;28;20179;-75
2024/01/26 08:16:00;;;;;;;2.47;1.60;;;12.40;99.90;;;;;;5090204;28;20661;-75
2024/01/26 08:18:26;;;;;;;2.20;1.40;;;12.40;99.90;;;;;;5071720;28;20218;-75
2024/01/26 08:20:52;;;;;;;2.57;1.17;;;12.40;99.90;;;;;;5072319;28;20626;-75
2024/01/26 08:23:18;;;;;;;2.17;1.10;;;12.40;99.90;;;;;;5090392;28;20195;-75
2024/01/26 08:25:44;;;;;;;3.23;1.20;;;12.40;99.90;;;;;;5072414;28;20688;-75
2024/01/26 08:28:10;;;;;;;2.97;1.10;;;12.40;99.90;;;;;;5072570;28;20176;-75
2024/01/26 08:30:36;;;;;;;2.23;1.13;;;12.40;99.90;;;;;;5090020;28;20693;-75
2024/01/26 08:33:02;;;;;;;3.37;1.17;;;12.50;99.90;;;;;;5090608;28;21308;-75
2024/01/26 08:35:27;;;;;;;1.50;0.90;;;12.50;99.90;;;;;;5090530;28;20187;-75
2024/01/26 08:37:53;;;;;;;1.90;1.00;;;12.50;99.90;;;;;;5071677;28;20245;-75
2024/01/26 08:40:20;;;;;;;2.83;1.47;;;12.50;99.90;;;;;;5079613;28;20207;-75
2024/01/26 08:42:46;;;;;;;1.70;1.13;;;12.50;99.90;;;;;;5072439;28;20191;-75
2024/01/26 08:45:12;;;;;;;1.97;1.10;;;12.50;99.90;;;;;;5072087;28;20633;-75
2024/01/26 08:47:38;;;;;;;1.65;1.02;;;12.60;99.90;;;;;;5068889;28;20211;-75
2024/01/26 08:50:05;;;;;;;1.40;0.90;;;12.60;99.90;;;;;;5084731;28;20225;-75
2024/01/26 08:52:31;;;;;;;1.55;0.90;;;12.50;99.90;;;;;;5072320;28;20976;-75
2024/01/26 08:54:58;;;;;;;1.42;0.85;;;12.60;99.90;;;;;;5055654;28;20584;-76
2024/01/26 08:57:36;;;;;;;1.63;0.63;;;12.60;99.90;;;;;;5072546;28;20176;-75
2024/01/26 09:00:04;;;;;;;3.10;1.10;;;12.60;99.90;;;;;;5089345;28;21205;-74
2024/01/26 09:02:30;;;;;;;2.17;0.70;;;12.60;99.90;;;;;;5090082;28;20705;-74
2024/01/26 09:04:55;;;;;;;2.23;0.70;;;12.70;99.90;;;;;;5093356;28;20605;-74
2024/01/26 09:07:22;;;;;;;1.40;0.60;;;12.70;99.90;;;;;;5090407;28;20196;-74
2024/01/26 09:09:48;;;;;;;1.30;0.60;;;12.70;99.90;;;;;;5089618;28;20179;-74
2024/01/26 09:12:14;;;;;;;2.73;0.63;;;12.70;99.90;;;;;;5090243;28;20644;-74
2024/01/26 09:14:40;;;;;;;1.43;0.70;;;12.70;99.90;;;;;;5068450;28;20594;-74
2024/01/26 09:17:07;;;;;;;2.90;0.60;;;12.80;99.90;;;;;;5068587;28;20183;-74
2024/01/26 09:19:33;;;;;;;1.63;0.90;;;12.90;99.90;;;;;;5068307;28;20211;-74
2024/01/26 09:21:58;;;;;;;1.50;0.70;;;12.90;99.90;;;;;;5093873;28;21131;-74
2024/01/26 09:24:24;;;;;;;1.90;0.90;;;12.90;99.90;;;;;;5075913;28;20214;-74
2024/01/26 09:26:50;;;;;;;1.73;0.70;;;12.90;99.90;;;;;;5054090;28;20185;-74
2024/01/26 09:29:16;;;;;;;1.40;0.80;;;13.00;99.90;;;;;;5071687;28;20188;-74
2024/01/26 09:31:41;;;;;;;2.07;0.70;;;13.00;99.90;;;;;;5075766;28;20210;-74
2024/01/26 09:34:07;;;;;;;2.03;0.77;;;13.00;99.90;;;;;;5069939;28;20652;-74
2024/01/26 09:36:33;;;;;;;1.30;0.60;;;13.00;99.90;;;;;;5092448;28;20253;-74
2024/01/26 09:38:59;;;;;;;1.83;0.60;;;13.10;99.90;;;;;;5093265;28;20624;-74
2024/01/26 09:41:25;;;;;;;1.40;0.60;;;13.10;99.90;;;;;;5081182;28;20614;-74
2024/01/26 09:43:51;;;;;;;1.27;0.63;;;13.20;99.90;;;;;;5089029;28;21154;-74
2024/01/26 09:46:19;;;;;;;1.07;0.50;;;13.20;99.90;;;;;;5075297;28;20581;-74
2024/01/26 09:48:45;;;;;;;1.30;0.60;;;13.30;99.90;;;;;;5092573;28;20669;-74
2024/01/26 09:51:11;;;;;;;1.30;0.60;;;13.30;99.90;;;;;;5083193;28;20631;-74
2024/01/26 09:53:38;;;;;;;1.20;0.60;;;13.40;99.90;;;;;;5075348;28;20692;-74
2024/01/26 09:56:06;;;;;;;1.47;0.50;;;13.50;99.90;;;;;;5093305;28;20963;-74
2024/01/26 09:58:31;;;;;;;1.73;0.60;;;13.50;99.90;;;;;;5092309;28;20584;-74
2024/01/26 10:00:57;;;;;;;1.80;0.80;;;13.60;99.90;;;;;;5075502;28;20629;-73
2024/01/26 10:03:24;;;;;;;1.30;0.70;;;13.70;99.90;;;;;;5074857;28;20201;-74
2024/01/26 10:05:49;;;;;;;1.80;0.50;;;13.70;99.90;;;;;;5066669;28;20172;-74
2024/01/26 10:08:16;;;;;;;1.33;0.60;;;13.80;99.90;;;;;;5092755;28;20668;-74
2024/01/26 10:10:42;;;;;;;1.67;0.70;;;13.80;99.90;;;;;;5093173;28;20259;-74
2024/01/26 10:13:08;;;;;;;2.63;1.63;;;13.80;99.90;;;;;;5066181;28;20740;-74
2024/01/26 10:15:34;;;;;;;2.33;1.07;;;13.80;99.90;;;;;;5074661;28;20267;-74
2024/01/26 10:18:01;;;;;;;1.40;0.80;;;13.90;99.90;;;;;;5074847;28;20704;-74
2024/01/26 10:20:26;;;;;;;1.30;0.60;;;13.90;99.90;;;;;;5094437;28;20699;-74
2024/01/26 10:22:52;;;;;;;1.37;0.60;;;14.00;99.90;;;;;;5071467;28;20618;-74
2024/01/26 10:25:18;;;;;;;1.37;0.50;;;14.00;99.90;;;;;;5054268;28;20227;-74
2024/01/26 10:27:44;;;;;;;1.97;0.60;;;14.00;99.90;;;;;;5092133;28;20584;-74
2024/01/26 10:30:11;;;;;;;1.30;0.60;;;14.00;99.90;;;;;;5091695;28;20282;-73
2024/01/26 10:32:38;;;;;;;1.20;0.60;;;14.00;99.90;;;;;;5092786;28;20206;-73
2024/01/26 10:35:05;;;;;;;2.50;0.53;;;14.00;99.90;;;;;;5057525;28;20578;-74
2024/01/26 10:37:33;;;;;;;1.80;0.70;;;14.00;99.90;;;;;;5074412;28;20582;-74
2024/01/26 10:40:00;;;;;;;1.20;0.60;;;14.10;99.90;;;;;;5070482;28;20638;-74
2024/01/26 10:42:30;;;;;;;1.97;0.70;;;14.10;99.90;;;;;;5074194;28;20614;-74
2024/01/26 10:45:02;;;;;;;2.20;0.80;;;14.10;99.90;;;;;;5092555;28;20613;-74
2024/01/26 10:47:28;;;;;;;3.90;1.20;;;14.10;99.90;;;;;;5086742;28;20744;-74
2024/01/26 10:49:57;;;;;;;1.60;0.80;;;14.10;99.90;;;;;;5073499;28;20589;-74
2024/01/26 10:52:23;;;;;;;1.80;0.70;;;14.20;99.90;;;;;;5092164;28;20628;-73
2024/01/26 10:54:51;;;;;;;1.50;0.73;;;14.20;99.90;;;;;;5065436;28;20655;-73
2024/01/26 10:57:21;;;;;;;3.00;0.70;;;14.20;99.90;;;;;;5095145;28;20677;-74
2024/01/26 10:59:48;;;;;;;1.80;0.70;;;14.20;99.90;;;;;;5073125;28;21226;-73
2024/01/26 11:02:20;;;;;;;1.43;0.80;;;14.20;99.90;;;;;;5073918;28;20671;-74
2024/01/26 11:04:46;;;;;;;2.10;1.40;;;14.20;99.90;;;;;;5091928;28;20574;-74
2024/01/26 11:07:13;;;;;;;2.67;0.90;;;14.20;99.90;;;;;;5073908;28;20578;-73
2024/01/26 11:09:39;;;;;;;1.90;0.87;;;14.20;99.90;;;;;;5073141;28;20597;-74
2024/01/26 11:12:20;;;;;;;2.00;1.00;;;14.10;99.90;;;;;;5056912;28;20634;-73
2024/01/26 11:15:06;;;;;;;3.47;1.10;;;14.20;99.90;;;;;;5073693;28;20600;-74
2024/01/26 11:17:44;;;;;;;3.17;2.00;;;14.20;99.90;;;;;;5091411;28;20570;-74
2024/01/26 11:20:13;;;;;;;3.50;1.10;;;14.10;99.90;;;;;;5091171;28;20637;-74
2024/01/26 11:22:38;;;;;;;2.53;1.30;;;14.00;99.90;;;;;;5073486;28;21205;-73
2024/01/26 11:25:04;;;;;;;2.80;1.23;;;13.90;99.90;;;;;;5070158;28;20583;-74
2024/01/26 11:27:30;;;;;;;2.10;0.80;;;13.80;99.90;;;;;;5088755;28;20179;-73
2024/01/26 11:29:56;;;;;;;2.60;0.80;;;13.70;99.90;;;;;;5091197;28;20183;-74
2024/01/26 11:32:22;;;;;;;2.10;1.20;;;13.50;99.90;;;;;;5091549;28;20202;-74
2024/01/26 11:35:05;;;;;;;3.07;1.00;;;13.40;99.90;;;;;;5074795;28;20214;-73
2024/01/26 11:37:32;;;;;;;2.53;0.77;;;13.30;99.90;;;;;;5073118;28;20590;-74
2024/01/26 11:39:59;;;;;;;5.33;1.13;;;13.20;99.90;;;;;;5072037;28;20640;-74
2024/01/26 11:42:25;;;;;;;3.03;1.10;;;13.10;99.90;;;;;;5056387;28;20610;-73
2024/01/26 11:45:13;;;;;;;2.10;0.90;;;13.00;99.90;;;;;;5061491;28;20963;-74
2024/01/26 11:47:40;;;;;;;13.40;1.23;;;12.90;99.90;;;;;;5054902;28;20590;-73
2024/01/26 11:50:07;;;;;;;4.60;1.47;;;12.90;99.90;;;;;;5072142;28;20585;-73
2024/01/26 11:52:37;;;;;;;3.00;0.80;;;12.80;99.90;;;;;;5071947;28;20659;-74
2024/01/26 11:55:03;;;;;;;3.50;0.77;;;12.80;99.90;;;;;;5090834;28;20672;-74
2024/01/26 11:57:33;;;;;;;3.97;1.00;;;12.80;99.90;;;;;;5090860;28;20581;-74
2024/01/26 11:59:59;;;;;;;3.07;1.00;;;12.80;99.90;;;;;;5068843;28;21174;-74
2024/01/26 12:02:25;;;;;;;5.13;1.00;;;12.80;99.90;;;;;;5091060;28;20616;-75
2024/01/26 12:04:51;;;;;;;7.13;1.03;;;12.80;99.90;;;;;;5072344;28;20582;-74
2024/01/26 12:07:17;;;;;;;5.23;0.90;;;12.80;99.90;;;;;;5071955;28;20605;-74
2024/01/26 12:09:44;;;;;;;4.97;1.03;;;12.80;99.90;;;;;;5090646;28;20620;-74
2024/01/26 12:12:10;;;;;;;2.70;0.80;;;12.80;99.90;;;;;;5071580;28;20242;-74
2024/01/26 12:14:37;;;;;;;4.20;1.37;;;12.80;99.90;;;;;;5046088;28;20593;-74
2024/01/26 12:17:03;;;;;;;2.87;1.10;;;12.80;99.90;;;;;;5083830;28;20582;-74
2024/01/26 12:19:28;;;;;;;2.03;0.90;;;12.80;99.90;;;;;;5071555;28;20590;-74
2024/01/26 12:21:54;;;;;;;2.07;0.97;;;12.90;99.90;;;;;;5090508;28;20613;-74
2024/01/26 12:24:22;;;;;;;3.13;0.77;;;12.90;99.90;;;;;;5072475;28;20721;-74
2024/01/26 12:26:47;;;;;;;3.00;0.73;;;12.90;99.90;;;;;;5090391;28;20553;-74
2024/01/26 12:29:13;;;;;;;2.90;1.20;;;12.90;99.90;;;;;;5071713;28;20639;-74
2024/01/26 12:31:39;;;;;;;2.00;0.80;;;12.90;99.90;;;;;;5072447;28;20199;-74
2024/01/26 12:34:14;;;;;;;3.40;0.90;;;12.90;99.90;;;;;;5063850;28;21134;-74
2024/01/26 12:36:40;;;;;;;3.07;0.90;;;12.80;99.90;;;;;;5038754;28;20189;-74
2024/01/26 12:39:06;;;;;;;2.92;1.17;;;12.70;99.90;;;;;;5068324;28;20685;-74
2024/01/26 12:41:33;;;;;;;5.05;1.00;;;12.60;99.90;;;;;;5072279;28;20233;-74
2024/01/26 12:44:00;;;;;;;4.47;0.80;;;12.50;99.90;;;;;;5090542;28;20167;-74
2024/01/26 12:46:26;;;;;;;5.55;0.98;;;12.50;99.90;;;;;;5072262;28;20578;-73